createdAt,value
2023-04-10T00:02:14.698Z,17.45
2023-04-10T00:04:43.047Z,15.93
2023-04-10T00:07:11.414Z,14.25
2023-04-10T00:09:39.536Z,15.07
2023-04-10T00:12:07.885Z,15.95
2023-04-10T00:14:36.181Z,15.88
2023-04-10T00:17:04.517Z,18.60
2023-04-10T00:19:32.727Z,14.75
2023-04-10T00:22:00.962Z,16.30
2023-04-10T00:24:29.174Z,19.83
2023-04-10T00:26:57.489Z,15.15
2023-04-10T00:29:25.787Z,15.73
2023-04-10T00:31:54.254Z,15.90
2023-04-10T00:34:22.501Z,13.55
2023-04-10T00:36:50.850Z,15.20
2023-04-10T00:39:19.965Z,20.30
2023-04-10T00:41:48.262Z,13.27
2023-04-10T00:44:16.796Z,14.82
2023-04-10T00:46:45.133Z,16.65
2023-04-10T00:49:13.611Z,16.33
2023-04-10T00:51:41.946Z,12.70
2023-04-10T00:54:11.579Z,15.50
2023-04-10T00:56:40.445Z,14.63
2023-04-10T00:59:08.715Z,12.27
2023-04-10T01:01:37.056Z,17.27
2023-04-10T01:04:05.973Z,13.52
2023-04-10T01:06:40.365Z,15.20
2023-04-10T01:09:25.026Z,15.88
2023-04-10T01:12:10.190Z,16.10
2023-04-10T01:14:47.383Z,12.57
2023-04-10T01:17:43.234Z,14.95
2023-04-10T01:20:24.230Z,15.93
2023-04-10T01:23:12.350Z,16.17
2023-04-10T01:25:49.674Z,13.98
2023-04-10T01:28:39.782Z,16.70
2023-04-10T01:31:10.994Z,14.75
2023-04-10T01:33:48.519Z,14.55
2023-04-10T01:36:24.730Z,14.57
2023-04-10T01:38:55.556Z,13.10
2023-04-10T01:41:25.426Z,13.10
2023-04-10T01:43:55.672Z,11.68
2023-04-10T01:46:25.743Z,17.25
2023-04-10T01:48:56.709Z,11.68
2023-04-10T01:51:25.314Z,12.10
2023-04-10T01:56:26.285Z,13.63
2023-04-10T01:58:54.708Z,16.23
2023-04-10T02:01:29.599Z,11.63
2023-04-10T02:04:01.294Z,10.27
2023-04-10T02:07:00.500Z,16.52
2023-04-10T02:10:20.968Z,14.90
2023-04-10T02:12:56.077Z,12.75
2023-04-10T02:15:26.505Z,12.27
2023-04-10T02:17:57.050Z,14.90
2023-04-10T02:20:26.038Z,11.85
2023-04-10T02:22:54.797Z,14.00
2023-04-10T02:25:23.235Z,12.93
2023-04-10T02:27:51.341Z,11.43
2023-04-10T02:30:19.496Z,12.40
2023-04-10T02:32:47.789Z,16.52
2023-04-10T02:35:18.741Z,15.52
2023-04-10T02:37:47.248Z,12.63
2023-04-10T02:40:16.622Z,12.38
2023-04-10T02:42:54.880Z,11.10
2023-04-10T02:45:23.258Z,9.75
2023-04-10T02:47:52.379Z,15.60
2023-04-10T02:50:21.091Z,13.70
2023-04-10T02:52:49.244Z,12.38
2023-04-10T02:55:17.663Z,13.88
2023-04-10T02:57:45.845Z,15.45
2023-04-10T03:00:14.588Z,13.52
2023-04-10T03:03:15.313Z,13.10
2023-04-10T03:05:49.430Z,17.13
2023-04-10T03:08:22.185Z,11.57
2023-04-10T03:10:51.301Z,10.57
2023-04-10T03:13:19.361Z,13.70
2023-04-10T03:15:47.946Z,11.80
2023-04-10T03:18:16.287Z,14.25
2023-04-10T03:20:46.199Z,14.02
2023-04-10T03:23:14.460Z,9.63
2023-04-10T03:25:42.652Z,10.75
2023-04-10T03:28:12.126Z,9.70
2023-04-10T03:30:40.405Z,11.40
2023-04-10T03:33:09.580Z,13.02
2023-04-10T03:35:37.796Z,13.65
2023-04-10T03:38:08.129Z,12.80
2023-04-10T03:40:37.098Z,15.52
2023-04-10T03:43:07.494Z,11.80
2023-04-10T03:48:04.518Z,13.95
2023-04-10T03:50:41.778Z,14.07
2023-04-10T03:53:10.738Z,10.98
2023-04-10T03:55:39.424Z,10.70
2023-04-10T03:58:07.691Z,13.40
2023-04-10T04:00:36.622Z,13.55
2023-04-10T04:03:23.102Z,10.48
2023-04-10T04:05:54.114Z,10.75
2023-04-10T04:08:45.122Z,12.32
2023-04-10T04:11:20.371Z,13.68
2023-04-10T04:14:04.298Z,11.48
2023-04-10T04:16:45.837Z,11.38
2023-04-10T04:19:26.964Z,9.30
2023-04-10T04:22:24.460Z,14.40
2023-04-10T04:25:04.625Z,11.70
2023-04-10T04:28:01.715Z,11.63
2023-04-10T04:30:35.921Z,12.05
2023-04-10T04:33:32.957Z,12.02
2023-04-10T04:36:11.076Z,10.77
2023-04-10T04:41:27.430Z,11.23
2023-04-10T04:44:24.610Z,10.95
2023-04-10T04:47:13.133Z,10.18
2023-04-10T04:49:59.498Z,11.07
2023-04-10T04:52:44.778Z,10.65
2023-04-10T04:58:21.401Z,10.07
2023-04-10T05:01:11.140Z,10.25
2023-04-10T05:04:14.752Z,10.60
2023-04-10T05:06:55.329Z,10.20
2023-04-10T05:09:40.223Z,9.90
2023-04-10T05:12:37.280Z,13.90
2023-04-10T05:15:21.825Z,11.23
2023-04-10T05:18:08.770Z,9.95
2023-04-10T05:20:57.596Z,9.00
2023-04-10T05:23:45.978Z,12.23
2023-04-10T05:26:40.453Z,11.18
2023-04-10T05:29:13.749Z,11.20
2023-04-10T05:32:07.791Z,12.73
2023-04-10T05:34:54.209Z,9.23
2023-04-10T05:37:40.618Z,10.50
2023-04-10T05:40:30.717Z,10.00
2023-04-10T05:43:15.274Z,12.32
2023-04-10T05:46:02.605Z,13.48
2023-04-10T05:49:00.494Z,13.05
2023-04-10T05:51:34.406Z,10.52
2023-04-10T05:54:28.952Z,10.75
2023-04-10T05:57:17.310Z,10.60
2023-04-10T06:00:09.198Z,12.57
2023-04-10T06:03:06.221Z,14.15
2023-04-10T06:05:40.280Z,10.02
2023-04-10T06:08:09.074Z,11.00
2023-04-10T06:10:37.365Z,10.48
2023-04-10T06:13:05.594Z,10.23
2023-04-10T06:15:33.977Z,12.52
2023-04-10T06:18:02.294Z,10.18
2023-04-10T06:23:00.038Z,9.23
2023-04-10T06:25:28.216Z,10.98
2023-04-10T06:27:56.848Z,11.98
2023-04-10T06:30:25.006Z,11.40
2023-04-10T06:32:53.310Z,9.45
2023-04-10T06:35:22.132Z,11.30
2023-04-10T06:37:50.350Z,9.73
2023-04-10T06:40:18.824Z,9.82
2023-04-10T06:42:47.160Z,9.90
2023-04-10T06:45:38.468Z,10.23
2023-04-10T06:48:07.321Z,11.38
2023-04-10T06:53:03.501Z,8.07
2023-04-10T06:55:31.965Z,9.48
2023-04-10T06:58:00.258Z,9.85
2023-04-10T07:00:28.567Z,8.77
2023-04-10T07:02:56.820Z,9.57
2023-04-10T07:05:25.188Z,8.60
2023-04-10T07:07:53.430Z,7.85
2023-04-10T07:10:21.662Z,8.75
2023-04-10T07:12:49.980Z,7.88
2023-04-10T07:15:18.193Z,9.57
2023-04-10T07:17:48.369Z,10.48
2023-04-10T07:20:16.615Z,10.25
2023-04-10T07:22:44.845Z,9.50
2023-04-10T07:25:13.135Z,7.90
2023-04-10T07:27:41.413Z,9.52
2023-04-10T07:30:11.721Z,13.82
2023-04-10T07:32:41.546Z,10.75
2023-04-10T07:35:10.289Z,14.93
2023-04-10T07:40:08.442Z,13.38
2023-04-10T07:42:37.009Z,12.23
2023-04-10T07:45:05.575Z,9.15
2023-04-10T07:47:33.942Z,10.15
2023-04-10T07:50:02.278Z,12.95
2023-04-10T07:52:30.635Z,12.70
2023-04-10T07:54:58.678Z,13.07
2023-04-10T07:57:26.901Z,11.77
2023-04-10T07:59:55.075Z,14.65
2023-04-10T08:02:23.415Z,16.20
2023-04-10T08:04:52.001Z,13.85
2023-04-10T08:07:21.668Z,15.43
2023-04-10T08:09:50.165Z,11.13
2023-04-10T08:12:18.380Z,17.17
2023-04-10T08:14:46.782Z,12.13
2023-04-10T08:17:15.169Z,15.35
2023-04-10T08:19:43.699Z,12.93
2023-04-10T08:22:12.021Z,11.75
2023-04-10T08:24:40.245Z,11.93
2023-04-10T08:27:08.603Z,15.23
2023-04-10T08:29:36.852Z,15.18
2023-04-10T08:32:05.317Z,14.13
2023-04-10T08:34:33.632Z,13.40
2023-04-10T08:37:05.536Z,13.48
2023-04-10T08:39:36.413Z,15.25
2023-04-10T08:42:04.828Z,14.57
2023-04-10T08:44:32.948Z,15.25
2023-04-10T08:47:02.904Z,17.05
2023-04-10T08:49:56.752Z,14.65
2023-04-10T08:52:31.371Z,14.32
2023-04-10T08:55:03.231Z,12.43
2023-04-10T08:57:31.660Z,14.25
2023-04-10T09:00:04.135Z,13.75
2023-04-10T09:02:42.425Z,15.02
2023-04-10T09:05:14.338Z,12.05
2023-04-10T09:07:42.639Z,16.85
2023-04-10T09:10:11.050Z,13.15
2023-04-10T09:12:49.508Z,13.15
2023-04-10T09:15:17.685Z,17.52
2023-04-10T09:18:04.147Z,15.43
2023-04-10T09:20:33.049Z,13.15
2023-04-10T09:23:01.354Z,14.00
2023-04-10T09:25:37.378Z,16.67
2023-04-10T09:28:08.146Z,15.82
2023-04-10T09:30:43.196Z,16.95
2023-04-10T09:33:25.602Z,13.23
2023-04-10T09:35:54.339Z,17.27
2023-04-10T09:38:22.842Z,17.27
2023-04-10T09:40:52.350Z,13.43
2023-04-10T09:43:25.100Z,15.23
2023-04-10T09:45:56.202Z,18.67
2023-04-10T09:48:26.021Z,13.63
2023-04-10T09:50:54.724Z,13.90
2023-04-10T09:53:23.113Z,14.35
2023-04-10T09:55:51.688Z,16.27
2023-04-10T09:58:20.023Z,14.50
2023-04-10T10:00:49.641Z,16.88
2023-04-10T10:03:19.904Z,15.82
2023-04-10T10:05:52.359Z,12.63
2023-04-10T10:08:22.011Z,15.95
2023-04-10T10:10:55.431Z,13.50
2023-04-10T10:13:35.405Z,14.65
2023-04-10T10:16:25.040Z,15.48
2023-04-10T10:19:11.041Z,14.50
2023-04-10T10:21:39.626Z,15.65
2023-04-10T10:24:10.813Z,14.55
2023-04-10T10:26:42.820Z,12.77
2023-04-10T10:29:11.151Z,14.75
2023-04-10T10:31:39.472Z,12.70
2023-04-10T10:34:07.815Z,12.70
2023-04-10T10:36:37.579Z,15.13
2023-04-10T10:39:08.649Z,12.93
2023-04-10T10:41:45.581Z,13.05
2023-04-10T10:45:07.414Z,15.82
2023-04-10T10:47:45.236Z,15.15
2023-04-10T10:50:13.726Z,20.35
2023-04-10T10:52:45.633Z,18.55
2023-04-10T10:55:23.085Z,20.75
2023-04-10T10:57:52.063Z,20.38
2023-04-10T11:00:23.564Z,19.33
2023-04-10T11:03:10.090Z,23.65
2023-04-10T11:05:52.407Z,19.48
2023-04-10T11:08:41.823Z,18.50
2023-04-10T11:11:14.837Z,17.27
2023-04-10T11:13:44.250Z,19.98
2023-04-10T11:16:13.761Z,20.02
2023-04-10T11:18:55.872Z,16.70
2023-04-10T11:21:31.075Z,18.38
2023-04-10T11:23:59.119Z,18.25
2023-04-10T11:26:36.556Z,16.98
2023-04-10T11:29:14.038Z,17.98
2023-04-10T11:31:43.574Z,18.52
2023-04-10T11:34:12.370Z,14.40
2023-04-10T11:36:42.501Z,14.73
2023-04-10T11:39:14.106Z,16.33
2023-04-10T11:41:46.228Z,16.15
2023-04-10T11:44:27.825Z,15.95
2023-04-10T11:50:14.679Z,16.02
2023-04-10T11:52:42.918Z,13.80
2023-04-10T11:55:11.297Z,13.45
2023-04-10T11:57:39.631Z,13.05
2023-04-10T12:00:08.676Z,15.15
2023-04-10T12:05:05.204Z,12.80
2023-04-10T12:07:33.930Z,15.65
2023-04-10T12:10:02.077Z,12.35
2023-04-10T12:12:37.358Z,16.17
2023-04-10T12:15:28.379Z,12.43
2023-04-10T12:17:57.127Z,16.27
2023-04-10T12:20:25.577Z,14.95
2023-04-10T12:22:55.973Z,14.52
2023-04-10T12:25:27.106Z,9.88
2023-04-10T12:27:55.284Z,12.15
2023-04-10T12:30:23.661Z,11.45
2023-04-10T12:32:53.133Z,12.90
2023-04-10T12:35:21.574Z,14.25
2023-04-10T12:37:53.556Z,16.15
2023-04-10T12:40:22.142Z,11.25
2023-04-10T12:42:50.264Z,12.25
2023-04-10T12:45:18.515Z,10.90
2023-04-10T12:47:51.209Z,9.75
2023-04-10T12:50:20.934Z,11.90
2023-04-10T12:53:09.220Z,10.25
2023-04-10T12:55:37.583Z,10.98
2023-04-10T12:58:19.473Z,12.25
2023-04-10T13:00:48.917Z,13.60
2023-04-10T13:03:17.292Z,10.93
2023-04-10T13:05:45.748Z,12.35
2023-04-10T13:08:14.321Z,10.10
2023-04-10T13:10:42.610Z,9.40
2023-04-10T13:13:11.169Z,11.18
2023-04-10T13:15:39.854Z,10.85
2023-04-10T13:20:37.232Z,11.43
2023-04-10T13:23:05.663Z,11.85
2023-04-10T13:25:35.547Z,10.27
2023-04-10T13:28:03.788Z,10.57
2023-04-10T13:30:32.120Z,9.18
2023-04-10T13:33:00.354Z,9.65
2023-04-10T13:35:28.685Z,9.38
2023-04-10T13:37:56.735Z,11.77
2023-04-10T13:40:24.905Z,11.38
2023-04-10T13:42:53.263Z,10.95
2023-04-10T13:45:21.533Z,9.98
2023-04-10T13:47:49.764Z,10.43
2023-04-10T13:50:18.403Z,10.60
2023-04-10T13:52:46.735Z,10.05
2023-04-10T13:55:14.986Z,9.25
2023-04-10T13:57:43.294Z,12.45
2023-04-10T14:00:13.420Z,9.73
2023-04-10T14:02:41.523Z,11.00
2023-04-10T14:05:10.656Z,8.77
2023-04-10T14:07:38.756Z,14.68
2023-04-10T14:10:08.027Z,17.83
2023-04-10T14:12:37.594Z,14.45
2023-04-10T14:15:06.766Z,16.70
2023-04-10T14:17:35.014Z,14.70
2023-04-10T14:20:03.294Z,10.85
2023-04-10T14:22:31.575Z,19.88
2023-04-10T14:25:11.736Z,14.50
2023-04-10T14:27:41.147Z,15.70
2023-04-10T14:30:10.362Z,11.48
2023-04-10T14:32:41.386Z,13.18
2023-04-10T14:35:10.170Z,16.45
2023-04-10T14:37:39.204Z,14.93
2023-04-10T14:40:08.234Z,22.65
2023-04-10T14:42:36.388Z,14.30
2023-04-10T14:45:04.808Z,15.43
2023-04-10T14:47:33.513Z,13.18
2023-04-10T14:50:01.954Z,19.15
2023-04-10T14:52:30.396Z,14.02
2023-04-10T14:54:58.521Z,14.02
2023-04-10T14:57:26.820Z,12.57
2023-04-10T14:59:55.051Z,14.48
2023-04-10T15:02:23.297Z,14.00
2023-04-10T15:04:51.916Z,14.07
2023-04-10T15:09:48.629Z,15.35
2023-04-10T15:14:44.780Z,12.73
2023-04-10T15:17:15.827Z,12.93
2023-04-10T15:19:44.155Z,20.73
2023-04-10T15:22:12.532Z,16.25
2023-04-10T15:24:50.058Z,18.25
2023-04-10T15:27:22.306Z,35.53
2023-04-10T15:29:50.781Z,28.90
2023-04-10T15:32:19.070Z,28.02
2023-04-10T15:34:47.386Z,22.02
2023-04-10T15:37:15.593Z,26.55
2023-04-10T15:39:43.780Z,23.13
2023-04-10T15:42:12.323Z,25.15
2023-04-10T15:44:40.542Z,22.40
2023-04-10T15:47:08.953Z,22.48
2023-04-10T15:49:38.729Z,17.13
2023-04-10T15:52:07.662Z,20.33
2023-04-10T15:57:04.559Z,20.38
2023-04-10T16:02:01.551Z,20.52
2023-04-10T16:04:30.722Z,16.75
2023-04-10T16:06:59.073Z,15.27
2023-04-10T16:09:27.384Z,17.67
2023-04-10T16:11:56.070Z,15.82
2023-04-10T16:14:24.528Z,19.02
2023-04-10T16:16:52.774Z,16.60
2023-04-10T16:19:21.319Z,17.08
2023-04-10T16:21:49.641Z,20.08
2023-04-10T16:24:17.900Z,12.57
2023-04-10T16:26:46.203Z,14.88
2023-04-10T16:29:14.558Z,11.75
2023-04-10T16:31:42.960Z,16.25
2023-04-10T16:34:11.288Z,13.35
2023-04-10T16:36:39.554Z,13.45
2023-04-10T16:39:08.021Z,16.75
2023-04-10T16:41:36.169Z,15.63
2023-04-10T16:44:04.462Z,13.20
2023-04-10T16:46:32.798Z,14.40
2023-04-10T16:49:01.193Z,14.00
2023-04-10T16:51:32.593Z,12.10
2023-04-10T16:54:00.901Z,15.45
2023-04-10T16:56:29.118Z,18.38
2023-04-10T16:58:57.637Z,13.25
2023-04-10T17:03:55.175Z,16.70
2023-04-10T17:06:23.485Z,13.23
2023-04-10T17:08:51.663Z,11.27
2023-04-10T17:11:21.325Z,23.05
2023-04-10T17:13:49.679Z,15.10
2023-04-10T17:16:17.835Z,16.05
2023-04-10T17:18:46.153Z,15.40
2023-04-10T17:21:14.895Z,14.57
2023-04-10T17:26:15.773Z,13.38
2023-04-10T17:28:44.939Z,14.32
2023-04-10T17:31:14.124Z,14.35
2023-04-10T17:33:42.739Z,12.85
2023-04-10T17:36:12.635Z,20.10
2023-04-10T17:38:42.415Z,17.10
2023-04-10T17:41:14.365Z,13.55
2023-04-10T17:43:42.704Z,19.50
2023-04-10T17:46:14.931Z,21.23
2023-04-10T17:48:44.286Z,18.15
2023-04-10T17:51:12.718Z,16.52
2023-04-10T17:53:40.948Z,16.73
2023-04-10T17:56:17.205Z,16.52
2023-04-10T17:58:45.584Z,16.92
2023-04-10T18:01:21.466Z,16.15
2023-04-10T18:03:49.849Z,16.83
2023-04-10T18:06:17.976Z,14.65
2023-04-10T18:08:46.201Z,20.73
2023-04-10T18:11:14.535Z,16.80
2023-04-10T18:13:42.830Z,13.18
2023-04-10T18:16:11.305Z,15.65
2023-04-10T18:18:39.472Z,14.98
2023-04-10T18:21:08.745Z,13.35
2023-04-10T18:23:36.900Z,13.07
2023-04-10T18:26:04.989Z,14.40
2023-04-10T18:28:33.372Z,13.65
2023-04-10T18:31:02.072Z,14.75
2023-04-10T18:33:30.580Z,12.27
2023-04-10T18:35:58.768Z,13.43
2023-04-10T18:38:27.554Z,16.13
2023-04-10T18:43:27.148Z,16.02
2023-04-10T18:48:23.549Z,14.73
2023-04-10T18:50:53.167Z,15.13
2023-04-10T18:53:22.273Z,15.40
2023-04-10T18:55:55.165Z,16.30
2023-04-10T18:58:23.489Z,15.98
2023-04-10T19:00:51.692Z,20.92
2023-04-10T19:03:21.133Z,20.00
2023-04-10T19:05:49.578Z,17.75
2023-04-10T19:08:17.833Z,19.75
2023-04-10T19:10:46.160Z,21.13
2023-04-10T19:13:14.512Z,19.80
2023-04-10T19:15:44.165Z,15.63
2023-04-10T19:18:14.068Z,19.77
2023-04-10T19:20:50.758Z,20.20
2023-04-10T19:23:21.753Z,20.35
2023-04-10T19:25:53.808Z,19.13
2023-04-10T19:28:23.741Z,21.77
2023-04-10T19:30:52.978Z,21.42
2023-04-10T19:33:21.188Z,17.10
2023-04-10T19:35:49.529Z,19.45
2023-04-10T19:38:18.090Z,23.55
2023-04-10T19:40:46.293Z,20.77
2023-04-10T19:43:14.580Z,20.95
2023-04-10T19:45:42.768Z,21.85
2023-04-10T19:48:14.104Z,24.50
2023-04-10T19:50:42.542Z,22.48
2023-04-10T19:53:10.760Z,23.00
2023-04-10T19:55:39.147Z,25.90
2023-04-10T19:58:10.514Z,26.70
2023-04-10T20:00:41.754Z,22.77
2023-04-10T20:03:10.116Z,22.80
2023-04-10T20:08:06.549Z,22.88
2023-04-10T20:10:35.412Z,23.00
2023-04-10T20:15:31.615Z,24.37
2023-04-10T20:18:00.053Z,24.40
2023-04-10T20:20:28.425Z,23.92
2023-04-10T20:22:56.632Z,20.20
2023-04-10T20:25:28.032Z,23.90
2023-04-10T20:27:56.433Z,25.60
2023-04-10T20:30:24.778Z,24.60
2023-04-10T20:32:53.006Z,19.20
2023-04-10T20:35:21.379Z,24.52
2023-04-10T20:37:49.726Z,21.10
2023-04-10T20:40:18.321Z,19.65
2023-04-10T20:42:46.488Z,20.40
2023-04-10T20:45:14.993Z,22.63
2023-04-10T20:47:43.392Z,20.48
2023-04-10T20:50:13.025Z,20.13
2023-04-10T20:52:41.364Z,21.80
2023-04-10T20:55:10.087Z,22.13
2023-04-10T21:00:07.303Z,19.50
2023-04-10T21:02:35.884Z,21.40
2023-04-10T21:07:32.694Z,21.83
2023-04-10T21:10:00.808Z,21.98
2023-04-10T21:13:09.043Z,22.30
2023-04-10T21:15:37.414Z,21.35
2023-04-10T21:20:40.957Z,20.67
2023-04-10T21:25:37.356Z,20.73
2023-04-10T21:28:06.141Z,19.98
2023-04-10T21:30:36.688Z,19.25
2023-04-10T21:33:05.059Z,19.60
2023-04-10T21:35:33.381Z,19.48
2023-04-10T21:38:02.317Z,22.63
2023-04-10T21:40:31.023Z,21.60
2023-04-10T21:42:59.398Z,18.80
2023-04-10T21:45:27.577Z,22.60
2023-04-10T21:47:55.930Z,23.27
2023-04-10T21:50:25.889Z,18.73
2023-04-10T21:52:54.272Z,20.60
2023-04-10T21:55:22.520Z,19.10
2023-04-10T21:57:50.881Z,22.17
2023-04-10T22:00:20.644Z,20.90
2023-04-10T22:02:52.700Z,21.00
2023-04-10T22:05:21.242Z,23.40
2023-04-10T22:07:49.337Z,21.77
2023-04-10T22:10:17.807Z,20.35
2023-04-10T22:12:48.492Z,22.08
2023-04-10T22:15:17.504Z,26.98
2023-04-10T22:22:42.537Z,25.05
2023-04-10T22:25:10.824Z,21.13
2023-04-10T22:27:39.096Z,20.20
2023-04-10T22:30:08.173Z,22.90
2023-04-10T22:32:36.536Z,23.88
2023-04-10T22:35:05.084Z,23.35
2023-04-10T22:37:33.720Z,25.90
2023-04-10T22:42:31.874Z,25.33
2023-04-10T22:45:00.515Z,25.42
2023-04-10T22:47:28.694Z,24.40
2023-04-10T22:49:56.901Z,23.05
2023-04-10T22:52:25.094Z,23.48
2023-04-10T22:54:53.312Z,23.42
2023-04-10T22:57:21.436Z,22.27
2023-04-10T22:59:49.755Z,25.67
2023-04-10T23:02:18.009Z,29.27
2023-04-10T23:04:46.517Z,24.05
2023-04-10T23:07:14.915Z,22.85
2023-04-10T23:09:43.196Z,25.48
2023-04-10T23:12:11.319Z,26.77
2023-04-10T23:14:39.652Z,24.73
2023-04-10T23:18:17.446Z,24.70
2023-04-10T23:23:14.779Z,24.20
2023-04-10T23:25:43.434Z,29.33
2023-04-10T23:30:40.144Z,23.27
2023-04-10T23:35:36.790Z,29.13
2023-04-10T23:38:04.961Z,28.13
2023-04-10T23:40:33.217Z,31.15
2023-04-10T23:43:01.576Z,29.30
2023-04-10T23:45:29.780Z,26.27
2023-04-10T23:47:57.988Z,27.10
2023-04-10T23:50:26.255Z,25.60
2023-04-10T23:52:54.448Z,27.17
2023-04-10T23:55:23.137Z,24.77
